Time;durP1;ratioP1;P1;durP2;ratioP2;P2;SDS_P1;SDS_P2;PMS_P1;PMS_P2;Temp;Humidity;BMP_temperature;BMP_pressure;BME280_temperature;BME280_humidity;BME280_pressure;Samples;Min_cycle;Max_cycle;Signal;HPM_P1;HPM_P2
2022/01/05 00:00:53;;;;;;;;;;;;;;;1.15;100.00;99412.38;5025466;28;20301;-72
2022/01/05 00:03:19;;;;;;;;;;;;;;;1.22;100.00;99409.31;5025000;28;19942;-70
2022/01/05 00:05:47;;;;;;;;;;;;;;;1.07;100.00;99396.63;5022918;28;19921;-70
2022/01/05 00:08:14;;;;;;;;;;;;;;;1.14;100.00;99397.81;5020492;28;19928;-71
2022/01/05 00:10:40;;;;;;;;;;;;;;;1.20;100.00;99406.03;5006575;28;19920;-71
2022/01/05 00:13:05;;;;;;;;;;;;;;;1.14;100.00;99405.56;5023325;28;19921;-71
2022/01/05 00:15:34;;;;;;;;;;;;;;;1.14;100.00;99402.97;5008204;28;19924;-70
2022/01/05 00:17:59;;;;;;;;;;;;;;;1.12;100.00;99399.69;4991824;28;20291;-71
2022/01/05 00:20:25;;;;;;;;;;;;;;;1.11;100.00;99392.06;5023023;28;20417;-71
2022/01/05 00:22:50;;;;;;;;;;;;;;;1.10;100.00;99399.00;4990092;28;19952;-71
2022/01/05 00:25:15;;;;;;;;;;;;;;;1.03;100.00;99397.81;5011011;28;19917;-70
2022/01/05 00:27:41;;;;;;;;;;;;;;;1.02;100.00;99380.69;4989979;28;19948;-71
2022/01/05 00:30:07;;;;;;;;;;;;;;;1.03;100.00;99389.25;5018170;28;20735;-71
2022/01/05 00:32:32;;;;;;;;;;;;;;;0.86;100.00;99383.63;5026822;28;19928;-71
2022/01/05 00:35:01;;;;;;;;;;;;;;;0.88;100.00;99375.75;5025234;28;20011;-71
2022/01/05 00:37:27;;;;;;;;;;;;;;;0.84;100.00;99374.38;5021985;28;19943;-71
2022/01/05 00:39:52;;;;;;;;;;;;;;;0.77;100.00;99374.84;5005347;28;19921;-71
2022/01/05 00:42:18;;;;;;;;;;;;;;;0.85;100.00;99371.66;5017557;28;19933;-71
2022/01/05 00:44:43;;;;;;;;;;;;;;;0.92;100.00;99383.19;5003497;28;19917;-71
2022/01/05 00:47:09;;;;;;;;;;;;;;;0.90;100.00;99372.13;5029052;28;19962;-70
2022/01/05 00:49:35;;;;;;;;;;;;;;;0.99;100.00;99373.19;5007473;28;20326;-70
2022/01/05 00:52:00;;;;;;;;;;;;;;;0.96;100.00;99371.66;5002986;28;19917;-71
2022/01/05 00:54:26;;;;;;;;;;;;;;;0.92;100.00;99372.84;5015729;28;19924;-70
2022/01/05 00:56:51;;;;;;;;;;;;;;;0.89;100.00;99365.31;5024449;28;19916;-70
2022/01/05 00:59:17;;;;;;;;;;;;;;;0.90;100.00;99379.84;5013401;28;19916;-71
2022/01/05 01:01:42;;;;;;;;;;;;;;;0.84;100.00;99370.00;5018065;28;19964;-71
2022/01/05 01:04:08;;;;;;;;;;;;;;;0.84;100.00;99382.09;5022114;28;19923;-72
2022/01/05 01:06:33;;;;;;;;;;;;;;;0.93;100.00;99378.81;5035124;28;19922;-71
2022/01/05 01:08:59;;;;;;;;;;;;;;;0.86;100.00;99377.66;5011596;28;20011;-71
2022/01/05 01:11:25;;;;;;;;;;;;;;;0.93;100.00;99381.41;5008049;28;19953;-71
2022/01/05 01:13:51;;;;;;;;;;;;;;;0.89;100.00;99367.91;4993195;28;19925;-70
2022/01/05 01:16:18;;;;;;;;;;;;;;;0.94;100.00;99370.13;5013967;28;19976;-71
2022/01/05 01:18:43;;;;;;;;;;;;;;;0.89;100.00;99362.75;4997284;28;19924;-71
2022/01/05 01:21:09;;;;;;;;;;;;;;;0.86;100.00;99364.75;5009329;28;19917;-70
2022/01/05 01:23:36;;;;;;;;;;;;;;;0.87;100.00;99362.03;5020432;28;19917;-72
2022/01/05 01:26:02;;;;;;;;;;;;;;;0.85;100.00;99355.34;5017510;28;20383;-72
2022/01/05 01:28:27;;;;;;;;;;;;;;;0.83;100.00;99360.66;5010136;28;19962;-72
2022/01/05 01:30:53;;;;;;;;;;;;;;;0.95;100.00;99351.13;5016129;28;19917;-73
2022/01/05 01:33:18;;;;;;;;;;;;;;;0.93;100.00;99355.59;5028912;28;20079;-71
2022/01/05 01:35:44;;;;;;;;;;;;;;;0.88;100.00;99352.53;5016447;28;19921;-70
2022/01/05 01:38:09;;;;;;;;;;;;;;;0.97;100.00;99352.63;4994350;28;19917;-70
2022/01/05 01:40:35;;;;;;;;;;;;;;;0.97;100.00;99362.16;4990563;28;19924;-71
2022/01/05 01:43:01;;;;;;;;;;;;;;;0.86;100.00;99351.84;5009946;28;19944;-72
2022/01/05 01:45:27;;;;;;;;;;;;;;;1.01;100.00;99350.63;4997672;28;19924;-71
2022/01/05 01:47:52;;;;;;;;;;;;;;;0.99;100.00;99349.13;5011445;28;19917;-70
2022/01/05 01:50:18;;;;;;;;;;;;;;;1.00;100.00;99353.34;5009849;28;20390;-71
2022/01/05 01:52:44;;;;;;;;;;;;;;;1.09;100.00;99355.19;5006221;28;19954;-70
2022/01/05 01:55:10;;;;;;;;;;;;;;;1.09;100.00;99350.03;5008050;28;19917;-71
2022/01/05 01:57:38;;;;;;;;;;;;;;;1.08;100.00;99351.00;5015689;28;19971;-71
2022/01/05 02:00:05;;;;;;;;;;;;;;;1.09;100.00;99344.88;5015644;28;19917;-71
2022/01/05 02:02:37;;;;;;;;;;;;;;;0.95;100.00;99344.19;5018162;28;19949;-71
2022/01/05 02:05:03;;;;;;;;;;;;;;;1.06;100.00;99338.19;5019905;28;20012;-71
2022/01/05 02:07:29;;;;;;;;;;;;;;;1.04;100.00;99340.09;5002926;28;19917;-71
2022/01/05 02:09:55;;;;;;;;;;;;;;;1.03;100.00;99343.59;4987072;28;19987;-71
2022/01/05 02:12:22;;;;;;;;;;;;;;;0.94;100.00;99339.13;5024763;28;19921;-70
2022/01/05 02:14:47;;;;;;;;;;;;;;;1.01;100.00;99337.72;5022348;28;20010;-70
2022/01/05 02:17:19;;;;;;;;;;;;;;;0.89;100.00;99339.50;5022018;28;20003;-70
2022/01/05 02:19:45;;;;;;;;;;;;;;;0.90;100.00;99343.72;5021923;28;19936;-71
2022/01/05 02:22:10;;;;;;;;;;;;;;;0.97;100.00;99344.88;4988059;28;20670;-71
2022/01/05 02:24:36;;;;;;;;;;;;;;;0.93;100.00;99333.16;5010690;28;19917;-70
2022/01/05 02:27:01;;;;;;;;;;;;;;;0.97;100.00;99342.31;5001819;28;19916;-71
2022/01/05 02:29:27;;;;;;;;;;;;;;;0.99;100.00;99333.63;5010267;28;19964;-72
2022/01/05 02:31:52;;;;;;;;;;;;;;;0.94;100.00;99331.41;5018156;28;19925;-72
2022/01/05 02:34:18;;;;;;;;;;;;;;;0.83;100.00;99333.97;5028688;28;20355;-71
2022/01/05 02:36:44;;;;;;;;;;;;;;;0.83;100.00;99331.41;5024171;28;19921;-70
2022/01/05 02:39:10;;;;;;;;;;;;;;;0.75;100.00;99326.84;5017920;28;19920;-70
2022/01/05 02:41:35;;;;;;;;;;;;;;;0.81;100.00;99328.13;5021488;28;19917;-70
2022/01/05 02:44:01;;;;;;;;;;;;;;;0.87;100.00;99325.91;5026621;28;19917;-69
2022/01/05 02:46:27;;;;;;;;;;;;;;;0.91;100.00;99324.72;5024905;28;20355;-71
2022/01/05 02:48:53;;;;;;;;;;;;;;;0.87;100.00;99336.22;5023747;28;19949;-70
2022/01/05 02:51:19;;;;;;;;;;;;;;;0.83;100.00;99334.84;5024920;28;20367;-70
2022/01/05 02:53:44;;;;;;;;;;;;;;;0.85;100.00;99342.44;5017881;28;20383;-71
2022/01/05 02:56:11;;;;;;;;;;;;;;;0.83;100.00;99333.97;5010506;28;19920;-70
2022/01/05 02:58:37;;;;;;;;;;;;;;;0.87;100.00;99330.25;5023629;28;20383;-71
2022/01/05 03:01:03;;;;;;;;;;;;;;;0.83;100.00;99332.25;5004215;28;19960;-70
2022/01/05 03:03:29;;;;;;;;;;;;;;;0.85;100.00;99335.53;5025117;28;19917;-71
2022/01/05 03:05:54;;;;;;;;;;;;;;;0.83;100.00;99327.09;5019301;28;19917;-71
2022/01/05 03:08:20;;;;;;;;;;;;;;;0.90;100.00;99319.66;5016853;28;19975;-71
2022/01/05 03:10:45;;;;;;;;;;;;;;;0.87;100.00;99319.94;5002156;28;19919;-70
2022/01/05 03:13:11;;;;;;;;;;;;;;;0.83;100.00;99310.75;5033296;28;19929;-70
2022/01/05 03:15:36;;;;;;;;;;;;;;;0.91;100.00;99318.75;5006550;28;20341;-70
2022/01/05 03:18:02;;;;;;;;;;;;;;;0.90;100.00;99312.72;5005383;28;19932;-70
2022/01/05 03:20:30;;;;;;;;;;;;;;;0.88;100.00;99306.06;5018817;28;19917;-71
2022/01/05 03:22:56;;;;;;;;;;;;;;;0.92;100.00;99308.31;5053192;23;20296;-79
2022/01/05 03:25:21;;;;;;;;;;;;;;;0.89;100.00;99302.56;4986344;28;19921;-79
2022/01/05 03:27:49;;;;;;;;;;;;;;;0.84;100.00;99297.72;4987695;28;19917;-78
2022/01/05 03:30:16;;;;;;;;;;;;;;;0.87;100.00;99294.91;4962847;28;19971;-77
2022/01/05 03:35:34;;;;;;;;;;;;;;;0.85;100.00;99294.22;4979509;28;19929;-77
2022/01/05 03:38:00;;;;;;;;;;;;;;;0.81;100.00;99299.72;4962100;28;19917;-77
2022/01/05 03:40:25;;;;;;;;;;;;;;;0.87;100.00;99299.28;4964852;28;20258;-77
2022/01/05 03:42:51;;;;;;;;;;;;;;;0.85;100.00;99290.81;4965454;28;19917;-78
2022/01/05 03:45:17;;;;;;;;;;;;;;;0.89;100.00;99295.63;4960747;28;19959;-78
2022/01/05 03:47:42;;;;;;;;;;;;;;;0.92;100.00;99292.81;4963703;28;19924;-77
2022/01/05 03:50:08;;;;;;;;;;;;;;;0.94;100.00;99300.41;4940385;28;20295;-78
2022/01/05 03:52:33;;;;;;;;;;;;;;;0.96;100.00;99303.69;4971963;28;19933;-79
2022/01/05 03:54:59;;;;;;;;;;;;;;;0.95;100.00;99297.72;4983721;28;19917;-78
2022/01/05 03:57:25;;;;;;;;;;;;;;;1.00;100.00;99306.84;4963455;28;19918;-78
2022/01/05 03:59:50;;;;;;;;;;;;;;;1.00;100.00;99309.44;4968810;28;20012;-78
2022/01/05 04:02:16;;;;;;;;;;;;;;;0.97;100.00;99298.41;4966124;28;20418;-78
2022/01/05 04:04:42;;;;;;;;;;;;;;;0.84;100.00;99299.50;4965043;28;19967;-77
2022/01/05 04:07:08;;;;;;;;;;;;;;;0.86;100.00;99297.63;4962825;28;20563;-77
2022/01/05 04:09:34;;;;;;;;;;;;;;;0.96;100.00;99299.38;4963957;28;19926;-78
2022/01/05 04:11:59;;;;;;;;;;;;;;;0.88;100.00;99293.97;4957682;28;20356;-77
2022/01/05 04:14:25;;;;;;;;;;;;;;;0.94;100.00;99297.81;4956013;28;19976;-78
2022/01/05 04:16:50;;;;;;;;;;;;;;;0.93;100.00;99301.38;4965284;28;19914;-78
2022/01/05 04:19:16;;;;;;;;;;;;;;;0.94;100.00;99297.81;4962138;28;19936;-77
2022/01/05 04:21:41;;;;;;;;;;;;;;;0.97;100.00;99295.84;4964672;28;19925;-78
2022/01/05 04:24:07;;;;;;;;;;;;;;;1.01;100.00;99295.59;4956353;28;19918;-77
2022/01/05 04:26:32;;;;;;;;;;;;;;;1.07;100.00;99288.19;4993701;28;20557;-78
2022/01/05 04:28:58;;;;;;;;;;;;;;;1.08;100.00;99289.81;4950120;28;19980;-79
2022/01/05 04:31:23;;;;;;;;;;;;;;;1.12;100.00;99280.88;4997234;28;20004;-77
2022/01/05 04:33:49;;;;;;;;;;;;;;;1.15;100.00;99279.84;4937509;28;19921;-77
2022/01/05 04:36:14;;;;;;;;;;;;;;;1.14;100.00;99291.09;4984457;28;19921;-77
2022/01/05 04:38:40;;;;;;;;;;;;;;;1.14;100.00;99289.34;4955578;28;19924;-78
2022/01/05 04:41:05;;;;;;;;;;;;;;;1.19;100.00;99294.16;5000775;28;20351;-78
2022/01/05 04:43:31;;;;;;;;;;;;;;;1.22;100.00;99293.06;4974152;28;19925;-76
2022/01/05 04:45:56;;;;;;;;;;;;;;;1.24;100.00;99291.19;4956095;28;19936;-78
2022/01/05 04:48:22;;;;;;;;;;;;;;;1.28;100.00;99290.84;4958037;28;20565;-79
2022/01/05 04:50:48;;;;;;;;;;;;;;;1.33;100.00;99288.69;4975061;28;19914;-78
2022/01/05 04:53:13;;;;;;;;;;;;;;;1.30;100.00;99291.53;4994152;28;19956;-77
2022/01/05 04:55:39;;;;;;;;;;;;;;;1.36;100.00;99287.63;4973696;28;19944;-78
2022/01/05 04:58:05;;;;;;;;;;;;;;;1.31;100.00;99290.56;4974373;28;20005;-77
2022/01/05 05:00:31;;;;;;;;;;;;;;;1.34;100.00;99284.34;4999013;28;20012;-78
2022/01/05 05:02:57;;;;;;;;;;;;;;;1.39;100.00;99292.53;4957521;28;20549;-77
2022/01/05 05:05:22;;;;;;;;;;;;;;;1.44;100.00;99294.78;4956224;28;19918;-77
2022/01/05 05:07:48;;;;;;;;;;;;;;;1.45;100.00;99291.22;4941145;28;20296;-78
2022/01/05 05:10:13;;;;;;;;;;;;;;;1.43;100.00;99290.53;4957813;28;20565;-77
2022/01/05 05:12:39;;;;;;;;;;;;;;;1.51;100.00;99293.34;4951805;28;19921;-78
2022/01/05 05:15:04;;;;;;;;;;;;;;;1.59;100.00;99308.22;4953726;28;19928;-78
2022/01/05 05:17:30;;;;;;;;;;;;;;;1.60;100.00;99304.69;4971223;28;19918;-79
2022/01/05 05:19:55;;;;;;;;;;;;;;;1.66;100.00;99304.19;4995507;28;19917;-79
2022/01/05 05:22:21;;;;;;;;;;;;;;;1.65;100.00;99305.13;4955474;28;20008;-78
2022/01/05 05:24:46;;;;;;;;;;;;;;;1.63;100.00;99291.53;4962367;28;19924;-78
2022/01/05 05:27:12;;;;;;;;;;;;;;;1.65;100.00;99299.97;4972829;28;19921;-78
2022/01/05 05:29:37;;;;;;;;;;;;;;;1.66;100.00;99292.09;4972467;28;19917;-79
2022/01/05 05:32:03;;;;;;;;;;;;;;;1.62;100.00;99287.28;4956662;28;19914;-79
2022/01/05 05:34:29;;;;;;;;;;;;;;;1.55;100.00;99286.97;4970043;28;19928;-78
2022/01/05 05:36:54;;;;;;;;;;;;;;;1.53;100.00;99284.50;4941087;28;20008;-78
2022/01/05 05:39:20;;;;;;;;;;;;;;;1.51;100.00;99290.75;4973790;28;20339;-78
2022/01/05 05:41:45;;;;;;;;;;;;;;;1.46;100.00;99296.28;4945268;28;19917;-78
2022/01/05 05:44:11;;;;;;;;;;;;;;;1.46;100.00;99296.28;4962480;28;19971;-79
2022/01/05 05:46:36;;;;;;;;;;;;;;;1.54;100.00;99300.81;4958616;28;19924;-77
2022/01/05 05:49:01;;;;;;;;;;;;;;;1.53;100.00;99302.59;4969504;28;20280;-78
2022/01/05 05:51:27;;;;;;;;;;;;;;;1.52;100.00;99293.19;4964893;28;19914;-77
2022/01/05 05:53:53;;;;;;;;;;;;;;;1.49;100.00;99293.47;4955979;28;19957;-78
2022/01/05 05:56:18;;;;;;;;;;;;;;;1.44;100.00;99300.75;4960833;28;20431;-79
2022/01/05 05:58:44;;;;;;;;;;;;;;;1.47;100.00;99299.66;4955551;28;19960;-79
2022/01/05 06:01:09;;;;;;;;;;;;;;;1.48;100.00;99299.56;4951298;28;19917;-80
2022/01/05 06:03:35;;;;;;;;;;;;;;;1.44;100.00;99285.25;4948772;28;20303;-77
2022/01/05 06:06:00;;;;;;;;;;;;;;;1.41;100.00;99300.19;4982680;28;19921;-78
2022/01/05 06:08:26;;;;;;;;;;;;;;;1.35;100.00;99297.13;4955925;28;19917;-78
2022/01/05 06:10:51;;;;;;;;;;;;;;;1.31;100.00;99295.75;4958415;28;20440;-78
2022/01/05 06:13:17;;;;;;;;;;;;;;;1.27;100.00;99302.09;4940948;28;19922;-77
2022/01/05 06:15:42;;;;;;;;;;;;;;;1.40;100.00;99296.78;4967434;28;19917;-78
2022/01/05 06:18:08;;;;;;;;;;;;;;;1.39;100.00;99296.91;4956618;28;19924;-77
2022/01/05 06:20:33;;;;;;;;;;;;;;;1.38;100.00;99293.50;4961806;28;19976;-78
2022/01/05 06:22:59;;;;;;;;;;;;;;;1.39;100.00;99307.22;4956007;28;19943;-78
2022/01/05 06:25:24;;;;;;;;;;;;;;;1.44;100.00;99299.94;4954315;28;19922;-76
2022/01/05 06:27:50;;;;;;;;;;;;;;;1.50;100.00;99295.09;4960726;28;19971;-78
2022/01/05 06:30:15;;;;;;;;;;;;;;;1.46;100.00;99298.06;4993831;28;19969;-77
2022/01/05 06:32:42;;;;;;;;;;;;;;;1.39;100.00;99295.13;4978785;28;19921;-76
2022/01/05 06:35:07;;;;;;;;;;;;;;;1.40;100.00;99295.97;4958544;28;20327;-79
2022/01/05 06:37:33;;;;;;;;;;;;;;;1.38;100.00;99303.84;4977817;28;19922;-76
2022/01/05 06:39:58;;;;;;;;;;;;;;;1.46;100.00;99303.22;4957356;28;19917;-78
2022/01/05 06:42:24;;;;;;;;;;;;;;;1.39;100.00;99302.88;4973155;28;19918;-80
2022/01/05 06:44:49;;;;;;;;;;;;;;;1.46;100.00;99313.56;4967218;28;19918;-77
2022/01/05 06:47:15;;;;;;;;;;;;;;;1.44;100.00;99303.34;4972875;28;20402;-78
2022/01/05 06:49:41;;;;;;;;;;;;;;;1.53;100.00;99306.97;4969541;28;19969;-78
2022/01/05 06:52:06;;;;;;;;;;;;;;;1.59;100.00;99308.22;4955927;28;19918;-78
2022/01/05 06:54:32;;;;;;;;;;;;;;;1.51;100.00;99303.69;4975570;28;19926;-77
2022/01/05 06:56:57;;;;;;;;;;;;;;;1.43;100.00;99304.28;4945058;28;19917;-78
2022/01/05 06:59:23;;;;;;;;;;;;;;;1.46;100.00;99306.63;4961367;28;19917;-79
2022/01/05 07:01:48;;;;;;;;;;;;;;;1.54;100.00;99309.41;4943904;28;19917;-77
2022/01/05 07:04:14;;;;;;;;;;;;;;;1.49;100.00;99308.97;4949216;28;19990;-78
2022/01/05 07:06:39;;;;;;;;;;;;;;;1.63;100.00;99318.19;4974948;28;19913;-78
2022/01/05 07:09:05;;;;;;;;;;;;;;;1.68;100.00;99318.63;4976549;28;19929;-78
2022/01/05 07:11:32;;;;;;;;;;;;;;;1.83;100.00;99315.72;4960493;28;19918;-79
2022/01/05 07:13:57;;;;;;;;;;;;;;;1.92;100.00;99318.41;4960393;28;19913;-80
2022/01/05 07:16:23;;;;;;;;;;;;;;;1.95;100.00;99312.97;4955347;28;20389;-79
2022/01/05 07:18:48;;;;;;;;;;;;;;;1.97;100.00;99310.25;4967137;28;19929;-80
2022/01/05 07:21:14;;;;;;;;;;;;;;;1.93;100.00;99306.28;4969701;28;20360;-80
2022/01/05 07:23:40;;;;;;;;;;;;;;;1.90;100.00;99307.38;4970516;28;19918;-80
2022/01/05 07:26:05;;;;;;;;;;;;;;;1.85;100.00;99312.09;4955593;28;20008;-82
2022/01/05 07:28:31;;;;;;;;;;;;;;;1.77;100.00;99305.91;4960972;28;19918;-78
2022/01/05 07:30:56;;;;;;;;;;;;;;;1.76;100.00;99312.84;4961795;28;20372;-80
2022/01/05 07:33:24;;;;;;;;;;;;;;;1.85;100.00;99316.44;4976013;28;19932;-80
2022/01/05 07:35:50;;;;;;;;;;;;;;;1.86;100.00;99303.38;4945232;28;20033;-80
2022/01/05 07:38:15;;;;;;;;;;;;;;;1.84;100.00;99307.03;4945615;28;19992;-78
2022/01/05 07:40:41;;;;;;;;;;;;;;;1.80;100.00;99308.25;4945625;28;19913;-80
2022/01/05 07:43:06;;;;;;;;;;;;;;;1.72;100.00;99317.44;4970074;28;19921;-79
2022/01/05 07:45:35;;;;;;;;;;;;;;;1.62;100.00;99313.13;4965737;28;19922;-79
2022/01/05 07:48:05;;;;;;;;;;;;;;;1.69;100.00;99316.84;4965244;28;20389;-79
2022/01/05 07:50:31;;;;;;;;;;;;;;;1.70;100.00;99303.81;4961304;28;19918;-79
2022/01/05 07:53:00;;;;;;;;;;;;;;;1.79;100.00;99307.44;4968991;28;19940;-79
2022/01/05 07:55:26;;;;;;;;;;;;;;;1.84;100.00;99304.44;4942418;28;19925;-80
2022/01/05 07:57:52;;;;;;;;;;;;;;;1.85;100.00;99299.16;4954740;28;19921;-80
2022/01/05 08:00:17;;;;;;;;;;;;;;;1.89;100.00;99300.53;4974818;28;19917;-78
2022/01/05 08:02:43;;;;;;;;;;;;;;;1.83;100.00;99303.63;4983474;28;19921;-81
2022/01/05 08:05:08;;;;;;;;;;;;;;;1.79;100.00;99299.66;4944812;28;19917;-80
2022/01/05 08:07:34;;;;;;;;;;;;;;;1.73;100.00;99300.16;4966104;28;19918;-79
2022/01/05 08:09:59;;;;;;;;;;;;;;;1.68;100.00;99300.53;4940263;28;19914;-81
2022/01/05 08:12:25;;;;;;;;;;;;;;;1.74;100.00;99307.78;4957989;28;20091;-80
2022/01/05 08:14:50;;;;;;;;;;;;;;;1.81;100.00;99304.69;4965826;28;19917;-78
2022/01/05 08:17:16;;;;;;;;;;;;;;;1.97;100.00;99312.84;4965297;28;19952;-80
2022/01/05 08:19:42;;;;;;;;;;;;;;;2.05;100.00;99309.63;4945443;28;19967;-80
2022/01/05 08:22:08;;;;;;;;;;;;;;;1.91;100.00;99316.75;4961946;28;19921;-80
2022/01/05 08:24:33;;;;;;;;;;;;;;;1.85;100.00;99301.75;4967231;28;20004;-79
2022/01/05 08:26:59;;;;;;;;;;;;;;;1.82;100.00;99302.00;4970091;28;19917;-79
2022/01/05 08:29:25;;;;;;;;;;;;;;;1.80;100.00;99306.47;4984554;28;20371;-80
2022/01/05 08:31:50;;;;;;;;;;;;;;;1.80;100.00;99297.91;4975316;28;19914;-79
2022/01/05 08:34:16;;;;;;;;;;;;;;;1.82;100.00;99314.09;4962763;28;19922;-80
2022/01/05 08:36:42;;;;;;;;;;;;;;;1.87;100.00;99317.94;4982178;28;19956;-80
2022/01/05 08:39:07;;;;;;;;;;;;;;;1.92;100.00;99309.81;4948450;28;19918;-80
2022/01/05 08:41:33;;;;;;;;;;;;;;;1.94;100.00;99321.69;4958230;28;19922;-80
2022/01/05 08:43:58;;;;;;;;;;;;;;;2.00;100.00;99329.84;4945512;28;19956;-80
2022/01/05 08:46:24;;;;;;;;;;;;;;;2.06;100.00;99325.00;4961620;28;19949;-78
2022/01/05 08:48:49;;;;;;;;;;;;;;;2.08;100.00;99310.19;4959525;28;19917;-80
2022/01/05 08:51:15;;;;;;;;;;;;;;;2.04;100.00;99320.94;4969326;28;20206;-80
2022/01/05 08:53:41;;;;;;;;;;;;;;;2.10;100.00;99320.41;4968107;28;19921;-79
2022/01/05 08:56:06;;;;;;;;;;;;;;;2.13;100.00;99330.53;4954863;28;19914;-80
2022/01/05 08:58:32;;;;;;;;;;;;;;;2.13;100.00;99331.31;4952660;28;19921;-80
2022/01/05 09:00:58;;;;;;;;;;;;;;;2.10;100.00;99336.75;4950797;28;19945;-79
2022/01/05 09:03:24;;;;;;;;;;;;;;;2.11;100.00;99334.97;4980882;28;19913;-79
2022/01/05 09:05:49;;;;;;;;;;;;;;;2.05;100.00;99345.81;4958565;28;19922;-80
2022/01/05 09:08:15;;;;;;;;;;;;;;;2.01;100.00;99337.50;4976899;28;19936;-79
2022/01/05 09:10:41;;;;;;;;;;;;;;;1.94;100.00;99337.19;4962707;28;19957;-80
2022/01/05 09:13:09;;;;;;;;;;;;;;;1.90;100.00;99338.41;4959369;28;19924;-80
2022/01/05 09:15:35;;;;;;;;;;;;;;;1.92;100.00;99340.84;4962643;28;19917;-79
2022/01/05 09:18:01;;;;;;;;;;;;;;;1.93;100.00;99338.13;4995258;28;19913;-80
2022/01/05 09:20:26;;;;;;;;;;;;;;;1.93;100.00;99334.72;4972938;28;19924;-79
2022/01/05 09:22:52;;;;;;;;;;;;;;;1.89;100.00;99323.81;4945376;28;19922;-79
2022/01/05 09:25:18;;;;;;;;;;;;;;;1.94;100.00;99338.94;4937769;28;19913;-79
2022/01/05 09:27:44;;;;;;;;;;;;;;;1.98;100.00;99336.94;4959518;28;19964;-78
2022/01/05 09:30:10;;;;;;;;;;;;;;;2.04;100.00;99334.66;4942760;28;19960;-79
2022/01/05 09:32:36;;;;;;;;;;;;;;;2.13;100.00;99343.44;4960393;28;19917;-79
2022/01/05 09:35:03;;;;;;;;;;;;;;;2.18;100.00;99340.47;4962019;28;19924;-80
2022/01/05 09:37:36;;;;;;;;;;;;;;;2.19;100.00;99340.34;4966754;28;19939;-80
2022/01/05 09:42:46;;;;;;;;;;;;;;;2.23;100.00;99348.69;4975662;28;20439;-79
2022/01/05 09:45:15;;;;;;;;;;;;;;;2.25;100.00;99341.59;4980985;28;20021;-79
2022/01/05 09:48:00;;;;;;;;;;;;;;;2.28;100.00;99344.75;4957828;28;19972;-79
2022/01/05 09:50:26;;;;;;;;;;;;;;;2.30;100.00;99337.69;4957871;28;20004;-80
2022/01/05 09:52:51;;;;;;;;;;;;;;;2.34;100.00;99351.19;4959828;28;20049;-80
2022/01/05 09:55:17;;;;;;;;;;;;;;;2.40;100.00;99336.94;4957865;28;19964;-80
2022/01/05 09:57:44;;;;;;;;;;;;;;;2.39;100.00;99349.03;4964742;28;19926;-80
2022/01/05 10:00:12;;;;;;;;;;;;;;;2.38;100.00;99350.00;4940564;28;19924;-79
2022/01/05 10:02:38;;;;;;;;;;;;;;;2.40;100.00;99336.94;4958231;28;19917;-81
2022/01/05 10:05:05;;;;;;;;;;;;;;;2.40;100.00;99342.91;4959055;28;20343;-80
2022/01/05 10:07:31;;;;;;;;;;;;;;;2.45;100.00;99338.19;4942054;28;19914;-79
2022/01/05 10:09:57;;;;;;;;;;;;;;;2.53;100.00;99333.16;4942482;28;19918;-80
2022/01/05 10:12:22;;;;;;;;;;;;;;;2.53;100.00;99340.94;4974508;28;20371;-79
2022/01/05 10:14:48;;;;;;;;;;;;;;;2.53;100.00;99334.94;4974296;28;19914;-80
2022/01/05 10:17:15;;;;;;;;;;;;;;;2.56;100.00;99324.31;4974588;28;19924;-79
2022/01/05 10:19:42;;;;;;;;;;;;;;;2.61;100.00;99337.69;4972663;28;19956;-79
2022/01/05 10:22:26;;;;;;;;;;;;;;;2.67;100.00;99331.19;4955542;28;19964;-81
2022/01/05 10:24:54;;;;;;;;;;;;;;;2.66;100.00;99337.31;4972432;28;19917;-79
2022/01/05 10:27:22;;;;;;;;;;;;;;;2.69;100.00;99331.88;4973025;28;20009;-78
2022/01/05 10:30:04;;;;;;;;;;;;;;;2.71;100.00;99337.72;4952487;28;19917;-80
2022/01/05 10:32:30;;;;;;;;;;;;;;;2.72;100.00;99331.63;4985129;28;19961;-81
2022/01/05 10:34:59;;;;;;;;;;;;;;;2.77;100.00;99339.81;4963376;28;19921;-81
2022/01/05 10:37:25;;;;;;;;;;;;;;;2.84;100.00;99342.69;4975160;28;19977;-80
2022/01/05 10:40:02;;;;;;;;;;;;;;;2.83;100.00;99334.09;4948136;28;20004;-80
2022/01/05 10:42:34;;;;;;;;;;;;;;;2.79;100.00;99329.31;4962942;28;19913;-81
2022/01/05 10:45:02;;;;;;;;;;;;;;;2.79;100.00;99339.66;4970754;28;19925;-79
2022/01/05 10:47:27;;;;;;;;;;;;;;;2.85;100.00;99339.16;4966105;28;19914;-80
2022/01/05 10:49:54;;;;;;;;;;;;;;;2.89;100.00;99340.53;4951437;28;19917;-80
2022/01/05 10:52:27;;;;;;;;;;;;;;;2.85;100.00;99336.56;4999151;28;20307;-80
2022/01/05 10:54:53;;;;;;;;;;;;;;;2.89;100.00;99335.34;4944832;28;20419;-81
2022/01/05 10:57:19;;;;;;;;;;;;;;;2.84;100.00;99325.38;4966374;28;19944;-80
2022/01/05 10:59:46;;;;;;;;;;;;;;;2.96;100.00;99333.03;4959571;28;20285;-79
2022/01/05 11:02:39;;;;;;;;;;;;;;;2.98;100.00;99337.16;4976979;28;19937;-80
2022/01/05 11:05:08;;;;;;;;;;;;;;;2.98;100.00;99331.16;4968830;28;19921;-80
2022/01/05 11:07:37;;;;;;;;;;;;;;;2.95;100.00;99334.81;4960768;28;19921;-80
2022/01/05 11:10:06;;;;;;;;;;;;;;;2.93;100.00;99334.94;4959785;28;20016;-79
2022/01/05 11:12:42;;;;;;;;;;;;;;;2.87;100.00;99330.31;4966303;28;20012;-80
2022/01/05 11:15:17;;;;;;;;;;;;;;;2.81;100.00;99328.25;4976428;28;19972;-79
2022/01/05 11:18:02;;;;;;;;;;;;;;;2.68;100.00;99320.69;4964602;28;19922;-80
2022/01/05 11:20:28;;;;;;;;;;;;;;;2.52;100.00;99328.97;4966743;28;20498;-80
2022/01/05 11:22:54;;;;;;;;;;;;;;;2.44;100.00;99323.59;4969399;28;19914;-80
2022/01/05 11:25:19;;;;;;;;;;;;;;;2.40;100.00;99316.22;4958531;28;19956;-81
2022/01/05 11:27:45;;;;;;;;;;;;;;;2.33;100.00;99311.53;4980030;28;19924;-80
2022/01/05 11:30:11;;;;;;;;;;;;;;;2.36;100.00;99314.84;4958117;28;19917;-80
2022/01/05 11:32:37;;;;;;;;;;;;;;;2.36;100.00;99323.41;4973154;28;19964;-80
2022/01/05 11:35:07;;;;;;;;;;;;;;;2.38;100.00;99326.69;4976832;28;19917;-79
2022/01/05 11:37:34;;;;;;;;;;;;;;;2.42;100.00;99327.25;4978823;28;19922;-79
2022/01/05 11:40:02;;;;;;;;;;;;;;;2.45;100.00;99333.00;4960614;28;19932;-78
2022/01/05 11:42:38;;;;;;;;;;;;;;;2.49;100.00;99333.56;4954911;28;19982;-81
2022/01/05 11:45:04;;;;;;;;;;;;;;;2.48;100.00;99337.09;4961351;28;19917;-80
2022/01/05 11:47:31;;;;;;;;;;;;;;;2.40;100.00;99332.56;4972779;28;19917;-81
2022/01/05 11:50:17;;;;;;;;;;;;;;;2.38;100.00;99338.81;4959048;28;19936;-80
2022/01/05 11:53:03;;;;;;;;;;;;;;;2.31;100.00;99343.69;4943547;28;19925;-80
2022/01/05 11:55:29;;;;;;;;;;;;;;;2.24;100.00;99347.72;4974400;28;19918;-80
2022/01/05 11:58:15;;;;;;;;;;;;;;;2.22;100.00;99347.84;4963516;28;19924;-80
2022/01/05 12:00:41;;;;;;;;;;;;;;;2.25;100.00;99341.59;4961841;28;19932;-80
2022/01/05 12:03:06;;;;;;;;;;;;;;;2.39;100.00;99336.09;4942929;28;20331;-80
2022/01/05 12:06:02;;;;;;;;;;;;;;;2.51;100.00;99334.25;4975308;28;19921;-78
2022/01/05 12:08:41;;;;;;;;;;;;;;;2.63;100.00;99342.75;4981844;28;19920;-80
2022/01/05 12:11:26;;;;;;;;;;;;;;;2.60;100.00;99343.00;4974702;28;19920;-82
2022/01/05 12:13:52;;;;;;;;;;;;;;;2.63;100.00;99343.56;4961282;28;19925;-78
2022/01/05 12:16:17;;;;;;;;;;;;;;;2.65;100.00;99346.84;4954565;28;19917;-79
2022/01/05 12:18:43;;;;;;;;;;;;;;;2.68;100.00;99348.38;4947066;28;19925;-82
2022/01/05 12:21:29;;;;;;;;;;;;;;;2.68;100.00;99356.13;4963246;28;19944;-81
2022/01/05 12:23:54;;;;;;;;;;;;;;;2.55;100.00;99361.50;4973044;28;19917;-79
2022/01/05 12:26:20;;;;;;;;;;;;;;;2.46;100.00;99362.28;4947477;28;19918;-79
2022/01/05 12:28:51;;;;;;;;;;;;;;;2.46;100.00;99347.56;4953533;28;19920;-80
2022/01/05 12:31:17;;;;;;;;;;;;;;;2.48;100.00;99352.63;4959329;28;19917;-80
2022/01/05 12:33:44;;;;;;;;;;;;;;;2.40;100.00;99353.25;4951509;28;20189;-80
2022/01/05 12:36:10;;;;;;;;;;;;;;;2.36;100.00;99349.28;4964428;28;20797;-79
2022/01/05 12:38:47;;;;;;;;;;;;;;;2.37;100.00;99355.28;4989582;28;20011;-82
2022/01/05 12:41:21;;;;;;;;;;;;;;;2.40;100.00;99352.44;4960814;28;19917;-79
2022/01/05 12:43:47;;;;;;;;;;;;;;;2.42;100.00;99356.53;4960012;28;19925;-80
2022/01/05 12:46:14;;;;;;;;;;;;;;;2.34;100.00;99362.34;4969621;28;20042;-80
2022/01/05 12:48:43;;;;;;;;;;;;;;;2.39;100.00;99358.56;4972870;28;19921;-77
2022/01/05 12:51:08;;;;;;;;;;;;;;;2.32;100.00;99353.91;4961389;28;20000;-80